Time;durP1;ratioP1;P1;durP2;ratioP2;P2;SDS_P1;SDS_P2;PMS_P1;PMS_P2;Temp;Humidity;BMP_temperature;BMP_pressure;BME280_temperature;BME280_humidity;BME280_pressure;Samples;Min_cycle;Max_cycle;Signal;HPM_P1;HPM_P2
2023/10/22 00:02:13;;;;;;;;;;;;;;;7.46;100.00;99620.56;4995371;28;19932;-82
2023/10/22 00:04:41;;;;;;;;;;;;;;;7.44;100.00;99622.75;5017878;28;20302;-83
2023/10/22 00:07:12;;;;;;;;;;;;;;;7.44;100.00;99609.22;5009555;28;20294;-83
2023/10/22 00:09:45;;;;;;;;;;;;;;;7.41;100.00;99617.09;4993483;28;19925;-83
2023/10/22 00:12:18;;;;;;;;;;;;;;;7.37;100.00;99616.84;4992860;28;20386;-83
2023/10/22 00:14:51;;;;;;;;;;;;;;;7.36;100.00;99609.84;4997573;28;19929;-84
2023/10/22 00:17:24;;;;;;;;;;;;;;;7.39;100.00;99613.84;4997246;28;19928;-84
2023/10/22 00:19:57;;;;;;;;;;;;;;;7.36;100.00;99609.84;5002792;28;19944;-82
2023/10/22 00:22:26;;;;;;;;;;;;;;;7.34;100.00;99609.31;4997749;28;19933;-84
2023/10/22 00:24:59;;;;;;;;;;;;;;;7.31;100.00;99618.00;4976285;28;19926;-84
2023/10/22 00:27:27;;;;;;;;;;;;;;;7.30;100.00;99621.78;5004660;28;19929;-83
2023/10/22 00:29:55;;;;;;;;;;;;;;;7.31;100.00;99604.47;4991927;28;19932;-84
2023/10/22 00:32:23;;;;;;;;;;;;;;;7.29;100.00;99620.16;4999420;28;19922;-84
2023/10/22 00:34:55;;;;;;;;;;;;;;;7.24;100.00;99621.03;4994886;28;19933;-83
2023/10/22 00:37:30;;;;;;;;;;;;;;;7.24;100.00;99617.53;5013284;28;19922;-83
2023/10/22 00:39:58;;;;;;;;;;;;;;;7.21;100.00;99623.47;4993714;28;19922;-84
2023/10/22 00:42:30;;;;;;;;;;;;;;;7.19;100.00;99625.66;4993139;28;20392;-83
2023/10/22 00:44:58;;;;;;;;;;;;;;;7.21;100.00;99623.47;4977581;28;20509;-83
2023/10/22 00:47:28;;;;;;;;;;;;;;;7.21;100.00;99618.06;4976808;28;19922;-85
2023/10/22 00:49:57;;;;;;;;;;;;;;;7.22;100.00;99625.09;4988595;28;19922;-83
2023/10/22 00:52:25;;;;;;;;;;;;;;;7.21;100.00;99615.34;4974061;28;19926;-83
2023/10/22 00:55:00;;;;;;;;;;;;;;;7.19;100.00;99625.66;4991352;28;20290;-83
2023/10/22 00:57:29;;;;;;;;;;;;;;;7.23;100.00;99618.59;4991941;28;20314;-83
2023/10/22 01:00:02;;;;;;;;;;;;;;;7.21;100.00;99631.59;4987099;28;20382;-84
2023/10/22 01:02:37;;;;;;;;;;;;;;;7.22;100.00;99627.81;4995244;28;19921;-83
2023/10/22 01:05:09;;;;;;;;;;;;;;;7.21;100.00;99618.06;4986368;28;19929;-83
2023/10/22 01:07:42;;;;;;;;;;;;;;;7.15;100.00;99618.13;4974892;28;20509;-84
2023/10/22 01:10:17;;;;;;;;;;;;;;;7.13;100.00;99619.50;4983980;28;20387;-84
2023/10/22 01:12:50;;;;;;;;;;;;;;;7.10;100.00;99614.66;5009794;28;19926;-84
2023/10/22 01:15:23;;;;;;;;;;;;;;;7.08;100.00;99619.53;5000734;28;19921;-83
2023/10/22 01:17:55;;;;;;;;;;;;;;;7.11;100.00;99622.50;5009398;28;19925;-84
2023/10/22 01:20:28;;;;;;;;;;;;;;;7.06;100.00;99622.53;4995943;28;19929;-83
2023/10/22 01:23:01;;;;;;;;;;;;;;;7.05;100.00;99620.91;4985429;28;19922;-83
2023/10/22 01:25:31;;;;;;;;;;;;;;;7.04;100.00;99621.97;4993963;28;19922;-82
2023/10/22 01:28:04;;;;;;;;;;;;;;;7.01;100.00;99617.13;4992187;28;19929;-83
2023/10/22 01:30:32;;;;;;;;;;;;;;;7.00;100.00;99620.94;4991898;28;19929;-83
2023/10/22 01:33:05;;;;;;;;;;;;;;;7.01;100.00;99617.13;5009215;28;19945;-82
2023/10/22 01:35:33;;;;;;;;;;;;;;;7.08;100.00;99614.91;5008365;28;19921;-84
2023/10/22 01:38:06;;;;;;;;;;;;;;;7.06;100.00;99622.53;4992887;28;19926;-83
2023/10/22 01:40:36;;;;;;;;;;;;;;;7.05;100.00;99620.91;4985373;28;20305;-84
2023/10/22 01:43:04;;;;;;;;;;;;;;;7.02;100.00;99624.19;4982039;28;19922;-83
2023/10/22 01:45:32;;;;;;;;;;;;;;;7.03;100.00;99620.38;4988620;28;19928;-84
2023/10/22 01:48:05;;;;;;;;;;;;;;;6.99;100.00;99627.44;5008874;28;19929;-83
2023/10/22 01:50:39;;;;;;;;;;;;;;;6.96;100.00;99630.69;5014905;28;19921;-84
2023/10/22 01:53:12;;;;;;;;;;;;;;;6.97;100.00;99621.50;5002883;28;19928;-83
2023/10/22 01:55:46;;;;;;;;;;;;;;;6.97;100.00;99626.91;5024424;28;19921;-83
2023/10/22 01:58:19;;;;;;;;;;;;;;;6.96;100.00;99619.88;5014533;28;19928;-83
2023/10/22 02:01:01;;;;;;;;;;;;;;;7.02;100.00;99624.19;5009326;28;19921;-83
2023/10/22 02:03:35;;;;;;;;;;;;;;;6.98;100.00;99618.50;4993772;28;19929;-83
2023/10/22 02:06:11;;;;;;;;;;;;;;;7.00;100.00;99614.72;4975587;28;20378;-83
2023/10/22 02:08:39;;;;;;;;;;;;;;;7.00;100.00;99618.22;5008099;28;19921;-84
2023/10/22 02:11:13;;;;;;;;;;;;;;;7.02;100.00;99607.94;4991901;28;19933;-83
2023/10/22 02:13:42;;;;;;;;;;;;;;;7.01;100.00;99610.94;5020593;28;19928;-84
2023/10/22 02:16:15;;;;;;;;;;;;;;;6.94;100.00;99600.44;5023743;28;20471;-85
2023/10/22 02:18:43;;;;;;;;;;;;;;;6.94;100.00;99605.84;4991721;28;19922;-83
2023/10/22 02:21:11;;;;;;;;;;;;;;;6.94;100.00;99608.53;5016324;28;19932;-83
2023/10/22 02:23:39;;;;;;;;;;;;;;;6.92;100.00;99614.25;5021411;28;19929;-85
2023/10/22 02:26:09;;;;;;;;;;;;;;;6.89;100.00;99619.38;5023675;28;19921;-83
2023/10/22 02:28:38;;;;;;;;;;;;;;;6.93;100.00;99612.34;4992001;28;19929;-83
2023/10/22 02:31:11;;;;;;;;;;;;;;;6.91;100.00;99615.31;5021270;28;19929;-83
2023/10/22 02:33:44;;;;;;;;;;;;;;;7.02;100.00;99618.75;5003488;28;19922;-84
2023/10/22 02:36:12;;;;;;;;;;;;;;;6.96;100.00;99612.59;5019129;28;19933;-84
2023/10/22 02:38:45;;;;;;;;;;;;;;;6.90;100.00;99613.69;5006892;28;19921;-83
2023/10/22 02:41:13;;;;;;;;;;;;;;;6.85;100.00;99608.34;5009474;28;19922;-83
2023/10/22 02:43:42;;;;;;;;;;;;;;;6.86;100.00;99612.66;4996717;28;19944;-84
2023/10/22 02:46:10;;;;;;;;;;;;;;;6.91;100.00;99620.72;5025608;28;19928;-83
2023/10/22 02:48:38;;;;;;;;;;;;;;;6.89;100.00;99614.81;5024645;28;20424;-83
2023/10/22 02:51:11;;;;;;;;;;;;;;;6.88;100.00;99605.06;4988298;28;19928;-84
2023/10/22 02:53:39;;;;;;;;;;;;;;;6.83;100.00;99607.81;5010044;28;19926;-83
2023/10/22 02:56:09;;;;;;;;;;;;;;;6.83;100.00;99615.91;5024851;28;19926;-83
2023/10/22 02:58:40;;;;;;;;;;;;;;;6.86;100.00;99618.06;5010578;28;20398;-85
2023/10/22 03:01:09;;;;;;;;;;;;;;;6.87;100.00;99621.59;5006133;28;19933;-83
2023/10/22 03:03:41;;;;;;;;;;;;;;;6.84;100.00;99624.84;5010615;28;19922;-84
2023/10/22 03:06:14;;;;;;;;;;;;;;;6.80;100.00;99622.69;5020793;28;19929;-84
2023/10/22 03:08:47;;;;;;;;;;;;;;;6.83;100.00;99625.94;5005787;28;19926;-83
2023/10/22 03:11:21;;;;;;;;;;;;;;;6.84;100.00;99624.84;5023873;28;19925;-83
2023/10/22 03:13:54;;;;;;;;;;;;;;;6.84;100.00;99624.84;5025872;28;19922;-84
2023/10/22 03:16:24;;;;;;;;;;;;;;;6.79;100.00;99620.28;5011966;28;20391;-83
2023/10/22 03:18:57;;;;;;;;;;;;;;;6.77;100.00;99625.16;5027349;28;19925;-84
2023/10/22 03:21:28;;;;;;;;;;;;;;;6.78;100.00;99624.06;5026052;28;19922;-84
2023/10/22 03:24:03;;;;;;;;;;;;;;;6.73;100.00;99633.03;4986881;28;19922;-83
2023/10/22 03:26:31;;;;;;;;;;;;;;;6.63;100.00;99624.97;5008318;28;20696;-83
2023/10/22 03:28:59;;;;;;;;;;;;;;;6.70;100.00;99624.66;5027169;28;19922;-83
2023/10/22 03:31:34;;;;;;;;;;;;;;;6.72;100.00;99622.50;5010514;28;19922;-85
2023/10/22 03:34:07;;;;;;;;;;;;;;;6.69;100.00;99628.47;4993481;28;20362;-83
2023/10/22 03:36:40;;;;;;;;;;;;;;;6.71;100.00;99627.09;5013279;28;19921;-83
2023/10/22 03:39:14;;;;;;;;;;;;;;;6.71;100.00;99629.81;5010880;28;19937;-83
2023/10/22 03:41:46;;;;;;;;;;;;;;;6.70;100.00;99624.66;4999893;28;19922;-83
2023/10/22 03:44:14;;;;;;;;;;;;;;;6.69;100.00;99626.56;5026810;28;19928;-84
2023/10/22 03:46:46;;;;;;;;;;;;;;;6.74;100.00;99628.41;4994889;28;19949;-84
2023/10/22 03:49:19;;;;;;;;;;;;;;;6.78;100.00;99624.06;4996051;28;19926;-84
2023/10/22 03:51:47;;;;;;;;;;;;;;;6.77;100.00;99625.16;4993650;28;20489;-84
2023/10/22 03:54:15;;;;;;;;;;;;;;;6.78;100.00;99614.06;5027041;28;19936;-84
2023/10/22 03:56:48;;;;;;;;;;;;;;;6.80;100.00;99624.59;5005201;28;19932;-84
2023/10/22 03:59:16;;;;;;;;;;;;;;;6.77;100.00;99623.25;5009728;28;19921;-84
2023/10/22 04:01:51;;;;;;;;;;;;;;;6.74;100.00;99628.41;5009337;28;19926;-84
2023/10/22 04:04:24;;;;;;;;;;;;;;;6.70;100.00;99624.66;5003004;28;19922;-83
2023/10/22 04:06:52;;;;;;;;;;;;;;;6.68;100.00;99626.84;4989426;28;20397;-83
2023/10/22 04:09:20;;;;;;;;;;;;;;;6.66;100.00;99632.53;5006179;28;19925;-83
2023/10/22 04:11:55;;;;;;;;;;;;;;;6.70;100.00;99628.19;4993204;28;19921;-85
2023/10/22 04:14:23;;;;;;;;;;;;;;;6.70;100.00;99639.00;5025093;28;19922;-83
2023/10/22 04:16:57;;;;;;;;;;;;;;;6.71;100.00;99637.91;4995253;28;19926;-86
2023/10/22 04:19:25;;;;;;;;;;;;;;;6.72;100.00;99639.50;5009013;28;19929;-84
2023/10/22 04:21:53;;;;;;;;;;;;;;;6.70;100.00;99641.69;5026772;28;19944;-86
2023/10/22 04:24:20;;;;;;;;;;;;;;;6.70;100.00;99640.88;5026225;28;19922;-85
2023/10/22 04:26:48;;;;;;;;;;;;;;;6.59;100.00;99634.75;5023562;28;19926;-83
2023/10/22 04:29:21;;;;;;;;;;;;;;;6.63;100.00;99643.91;5026323;28;19921;-83
2023/10/22 04:31:54;;;;;;;;;;;;;;;6.62;100.00;99636.88;5009109;28;20393;-84
2023/10/22 04:34:23;;;;;;;;;;;;;;;6.63;100.00;99633.09;4991985;28;20304;-83
2023/10/22 04:36:56;;;;;;;;;;;;;;;6.62;100.00;99631.47;4999951;28;19922;-83
2023/10/22 04:39:24;;;;;;;;;;;;;;;6.65;100.00;99636.31;5024901;28;19929;-84
2023/10/22 04:41:52;;;;;;;;;;;;;;;6.66;100.00;99640.63;5025334;28;19921;-83
2023/10/22 04:44:25;;;;;;;;;;;;;;;6.67;100.00;99638.72;5010401;28;19921;-83
2023/10/22 04:46:58;;;;;;;;;;;;;;;6.66;100.00;99637.09;4991724;28;19930;-84
2023/10/22 04:49:33;;;;;;;;;;;;;;;6.69;100.00;99645.47;5026210;28;19956;-83
2023/10/22 04:52:00;;;;;;;;;;;;;;;6.65;100.00;99641.72;4992102;28;19940;-83
2023/10/22 04:54:28;;;;;;;;;;;;;;;6.66;100.00;99646.03;5009034;28;19921;-84
2023/10/22 04:57:02;;;;;;;;;;;;;;;6.68;100.00;99640.34;5007969;28;19928;-85
2023/10/22 04:59:35;;;;;;;;;;;;;;;6.63;100.00;99644.72;5000640;28;19925;-82
2023/10/22 05:02:08;;;;;;;;;;;;;;;6.63;100.00;99641.19;4988834;28;19921;-84
2023/10/22 05:04:37;;;;;;;;;;;;;;;6.60;100.00;99649.84;5006946;28;20686;-84
2023/10/22 05:07:10;;;;;;;;;;;;;;;6.59;100.00;99648.25;5007630;28;19929;-86
2023/10/22 05:09:38;;;;;;;;;;;;;;;6.54;100.00;99648.28;5008793;28;19921;-85
2023/10/22 05:12:09;;;;;;;;;;;;;;;6.54;100.00;99657.19;4993329;28;19922;-84
2023/10/22 05:14:37;;;;;;;;;;;;;;;6.61;100.00;99662.28;4986953;28;19921;-84
2023/10/22 05:17:05;;;;;;;;;;;;;;;6.58;100.00;99654.75;5019266;28;20563;-83
2023/10/22 05:19:34;;;;;;;;;;;;;;;6.65;100.00;99652.53;5007986;28;19922;-84
2023/10/22 05:22:08;;;;;;;;;;;;;;;6.64;100.00;99659.03;5017917;28;19921;-84
2023/10/22 05:24:36;;;;;;;;;;;;;;;6.68;100.00;99672.81;4992797;28;19936;-84
2023/10/22 05:27:04;;;;;;;;;;;;;;;6.69;100.00;99669.81;4989312;28;20634;-84
2023/10/22 05:29:37;;;;;;;;;;;;;;;6.69;100.00;99677.13;5025759;28;19928;-83
2023/10/22 05:32:10;;;;;;;;;;;;;;;6.64;100.00;99676.06;5018560;28;20297;-84
2023/10/22 05:34:38;;;;;;;;;;;;;;;6.63;100.00;99687.16;5008248;28;19922;-83
2023/10/22 05:37:08;;;;;;;;;;;;;;;6.66;100.00;99675.78;5019977;28;19929;-83
2023/10/22 05:39:36;;;;;;;;;;;;;;;6.62;100.00;99680.13;5009776;28;19929;-83
2023/10/22 05:42:09;;;;;;;;;;;;;;;6.71;100.00;99688.47;4993342;28;19922;-85
2023/10/22 05:44:42;;;;;;;;;;;;;;;6.70;100.00;99684.13;5026927;28;19937;-83
2023/10/22 05:47:15;;;;;;;;;;;;;;;6.73;100.00;99692.50;4988995;28;19925;-83
2023/10/22 05:49:48;;;;;;;;;;;;;;;6.72;100.00;99695.50;5027074;28;19928;-84
2023/10/22 05:52:24;;;;;;;;;;;;;;;6.73;100.00;99695.22;5026347;28;19925;-84
2023/10/22 05:54:52;;;;;;;;;;;;;;;6.71;100.00;99702.81;5011799;28;19929;-83
2023/10/22 05:57:22;;;;;;;;;;;;;;;6.66;100.00;99707.41;4994502;28;19933;-84
2023/10/22 05:59:50;;;;;;;;;;;;;;;6.70;100.00;99709.28;4991569;28;20294;-84
2023/10/22 06:02:18;;;;;;;;;;;;;;;6.71;100.00;99715.50;4991019;28;19929;-83
2023/10/22 06:04:51;;;;;;;;;;;;;;;6.72;100.00;99717.91;4993706;28;19937;-84
2023/10/22 06:07:19;;;;;;;;;;;;;;;6.70;100.00;99720.09;4993821;28;19932;-83
2023/10/22 06:09:49;;;;;;;;;;;;;;;6.65;100.00;99725.53;5010495;28;19929;-84
2023/10/22 06:12:21;;;;;;;;;;;;;;;6.64;100.00;99723.91;5006495;28;19932;-83
2023/10/22 06:14:49;;;;;;;;;;;;;;;6.63;100.00;99731.22;4998556;28;19933;-84
2023/10/22 06:17:17;;;;;;;;;;;;;;;6.64;100.00;99732.00;5013174;28;19944;-84
2023/10/22 06:19:50;;;;;;;;;;;;;;;6.64;100.00;99738.25;5003044;28;19921;-85
2023/10/22 06:22:23;;;;;;;;;;;;;;;6.61;100.00;99736.06;4986824;28;19921;-84
2023/10/22 06:24:53;;;;;;;;;;;;;;;6.61;100.00;99749.59;4998735;28;20294;-85
2023/10/22 06:27:21;;;;;;;;;;;;;;;6.57;100.00;99739.63;4994472;28;19921;-84
2023/10/22 06:29:49;;;;;;;;;;;;;;;6.57;100.00;99756.66;4996799;28;20401;-83
2023/10/22 06:32:17;;;;;;;;;;;;;;;6.64;100.00;99750.94;5010775;28;19921;-84
2023/10/22 06:34:45;;;;;;;;;;;;;;;6.71;100.00;99753.34;4983147;28;19933;-84
2023/10/22 06:37:13;;;;;;;;;;;;;;;6.69;100.00;99753.63;5013135;28;19922;-84
2023/10/22 06:39:41;;;;;;;;;;;;;;;6.71;100.00;99758.75;4996303;28;19929;-84
2023/10/22 06:42:10;;;;;;;;;;;;;;;6.73;100.00;99759.31;4994007;28;19922;-84
2023/10/22 06:44:43;;;;;;;;;;;;;;;6.76;100.00;99759.53;4990853;28;19933;-83
2023/10/22 06:47:16;;;;;;;;;;;;;;;6.78;100.00;99770.09;4995919;28;19921;-85
2023/10/22 06:49:49;;;;;;;;;;;;;;;6.81;100.00;99761.44;4987594;28;19933;-84
2023/10/22 06:52:22;;;;;;;;;;;;;;;6.82;100.00;99765.75;4996272;28;19925;-84
2023/10/22 06:54:55;;;;;;;;;;;;;;;6.88;100.00;99763.84;5003462;28;19922;-84
2023/10/22 06:57:29;;;;;;;;;;;;;;;6.95;100.00;99757.03;4997584;28;19921;-84
2023/10/22 06:59:58;;;;;;;;;;;;;;;7.01;100.00;99759.72;4989504;28;19929;-84
2023/10/22 07:02:27;;;;;;;;;;;;;;;7.05;100.00;99763.47;4983921;28;20370;-84
2023/10/22 07:04:55;;;;;;;;;;;;;;;7.07;100.00;99764.00;4993555;28;19929;-85
2023/10/22 07:07:24;;;;;;;;;;;;;;;7.07;100.00;99762.13;4998995;28;19921;-85
2023/10/22 07:09:52;;;;;;;;;;;;;;;7.13;100.00;99761.00;4996405;28;19930;-86
2023/10/22 07:12:20;;;;;;;;;;;;;;;7.21;100.00;99762.31;4994181;28;19929;-85
2023/10/22 07:14:55;;;;;;;;;;;;;;;7.27;100.00;99755.75;4980947;28;19925;-85
2023/10/22 07:17:23;;;;;;;;;;;;;;;7.31;100.00;99758.72;4997828;28;19925;-86
2023/10/22 07:19:51;;;;;;;;;;;;;;;7.34;100.00;99751.94;4996002;28;19921;-86
2023/10/22 07:22:19;;;;;;;;;;;;;;;7.39;100.00;99752.72;4984086;28;19922;-86
2023/10/22 07:24:50;;;;;;;;;;;;;;;7.42;100.00;99762.97;5008338;28;20003;-86
2023/10/22 07:27:23;;;;;;;;;;;;;;;7.49;100.00;99765.38;4976445;28;20033;-85
2023/10/22 07:29:50;;;;;;;;;;;;;;;7.52;100.00;99769.41;4996843;28;19928;-85
2023/10/22 07:32:25;;;;;;;;;;;;;;;7.55;100.00;99764.22;4997189;28;19926;-86
2023/10/22 07:34:53;;;;;;;;;;;;;;;7.61;100.00;99760.41;4993524;28;19921;-85
2023/10/22 07:37:26;;;;;;;;;;;;;;;7.66;100.00;99760.38;4994185;28;19930;-85
2023/10/22 07:39:53;;;;;;;;;;;;;;;7.69;100.00;99771.72;4999528;28;19929;-86
2023/10/22 07:42:26;;;;;;;;;;;;;;;7.74;100.00;99779.81;4993748;28;19933;-86
2023/10/22 07:44:54;;;;;;;;;;;;;;;7.81;100.00;99772.16;4992861;28;19922;-86
2023/10/22 07:47:29;;;;;;;;;;;;;;;7.92;100.00;99772.91;4996946;28;19928;-86
2023/10/22 07:49:57;;;;;;;;;;;;;;;7.96;100.00;99777.44;5009981;28;19944;-85
2023/10/22 07:52:24;;;;;;;;;;;;;;;8.00;100.00;99785.84;4993032;28;21177;-86
2023/10/22 07:54:52;;;;;;;;;;;;;;;8.04;100.00;99784.16;4994354;28;19930;-86
2023/10/22 07:57:26;;;;;;;;;;;;;;;8.12;100.00;99772.72;4985375;28;19929;-86
2023/10/22 07:59:54;;;;;;;;;;;;;;;8.19;100.00;99783.22;5010954;28;19926;-86
2023/10/22 08:02:22;;;;;;;;;;;;;;;8.27;100.00;99770.94;4981732;28;20392;-85
2023/10/22 08:04:56;;;;;;;;;;;;;;;8.35;100.00;99783.88;4995782;28;19925;-85
2023/10/22 08:07:24;;;;;;;;;;;;;;;8.36;100.00;99777.34;5008567;28;20302;-85
2023/10/22 08:09:52;;;;;;;;;;;;;;;8.47;100.00;99775.38;4989930;28;20385;-85
2023/10/22 08:12:20;;;;;;;;;;;;;;;8.53;100.00;99771.50;4993993;28;19921;-86
2023/10/22 08:14:48;;;;;;;;;;;;;;;8.55;100.00;99782.06;5006764;28;19921;-86
2023/10/22 08:17:20;;;;;;;;;;;;;;;8.59;100.00;99780.38;4985784;28;20386;-83
2023/10/22 08:19:49;;;;;;;;;;;;;;;8.64;100.00;99783.84;4992650;28;19930;-83
2023/10/22 08:22:19;;;;;;;;;;;;;;;8.71;100.00;99783.50;4985444;28;19922;-84
2023/10/22 08:24:47;;;;;;;;;;;;;;;8.60;100.00;99785.50;4995188;28;20033;-84
2023/10/22 08:27:15;;;;;;;;;;;;;;;8.64;100.00;99791.19;4985057;28;19922;-84
2023/10/22 08:29:48;;;;;;;;;;;;;;;8.66;100.00;99789.00;4974940;28;19933;-86
2023/10/22 08:32:21;;;;;;;;;;;;;;;8.72;100.00;99789.75;4994015;28;19926;-84
2023/10/22 08:34:49;;;;;;;;;;;;;;;8.71;100.00;99793.56;4993166;28;19922;-85
2023/10/22 08:37:18;;;;;;;;;;;;;;;8.70;100.00;99784.63;4986551;28;20018;-84
2023/10/22 08:39:46;;;;;;;;;;;;;;;8.73;100.00;99797.59;4987460;28;19922;-85
2023/10/22 08:42:19;;;;;;;;;;;;;;;8.65;100.00;99809.88;5006483;28;19921;-82
2023/10/22 08:44:52;;;;;;;;;;;;;;;8.67;100.00;99807.69;4976946;28;19922;-84
2023/10/22 08:47:20;;;;;;;;;;;;;;;8.67;100.00;99810.41;4990607;28;19926;-84
2023/10/22 08:49:49;;;;;;;;;;;;;;;8.71;100.00;99807.91;4997347;28;19925;-86
2023/10/22 08:52:18;;;;;;;;;;;;;;;8.73;100.00;99808.44;5007788;28;20002;-84
2023/10/22 08:54:47;;;;;;;;;;;;;;;8.73;100.00;99808.44;4970779;28;19929;-84
2023/10/22 08:57:20;;;;;;;;;;;;;;;8.75;100.00;99806.25;4993059;28;19928;-83
2023/10/22 08:59:50;;;;;;;;;;;;;;;8.84;100.00;99815.38;4986481;28;19929;-84
2023/10/22 09:02:26;;;;;;;;;;;;;;;8.95;100.00;99815.22;4975560;28;19921;-83
2023/10/22 09:04:59;;;;;;;;;;;;;;;9.07;100.00;99818.34;4993438;28;19921;-83
2023/10/22 09:07:47;;;;;;;;;;;;;;;9.22;100.00;99817.34;4979903;28;19976;-84
2023/10/22 09:10:25;;;;;;;;;;;;;;;9.34;100.00;99814.22;4994985;28;19932;-83
2023/10/22 09:13:11;;;;;;;;;;;;;;;9.48;100.00;99815.06;5007564;28;19921;-84
2023/10/22 09:15:45;;;;;;;;;;;;;;;9.63;100.00;99818.69;4975263;28;19922;-82
2023/10/22 09:18:14;;;;;;;;;;;;;;;9.81;100.00;99811.63;4981062;28;19921;-82
2023/10/22 09:20:48;;;;;;;;;;;;;;;9.88;100.00;99806.59;4987653;28;20016;-85
2023/10/22 09:23:17;;;;;;;;;;;;;;;9.97;100.00;99813.00;4977343;28;19922;-84
2023/10/22 09:25:52;;;;;;;;;;;;;;;10.03;100.00;99811.78;5004916;28;19922;-85
2023/10/22 09:28:26;;;;;;;;;;;;;;;10.07;100.00;99820.16;5009357;28;19936;-84
2023/10/22 09:30:55;;;;;;;;;;;;;;;10.06;100.00;99812.31;4984897;28;19944;-83
2023/10/22 09:33:31;;;;;;;;;;;;;;;10.04;100.00;99818.84;4983671;28;20382;-84
2023/10/22 09:36:05;;;;;;;;;;;;;;;10.19;100.00;99812.34;4984000;28;20382;-84
2023/10/22 09:38:43;;;;;;;;;;;;;;;10.30;100.00;99810.25;5007387;28;19929;-86
2023/10/22 09:41:13;;;;;;;;;;;;;;;10.38;100.00;99817.75;4991871;28;19922;-83
2023/10/22 09:43:41;;;;;;;;;;;;;;;10.53;100.00;99816.66;4993433;28;19922;-84
2023/10/22 09:46:10;;;;;;;;;;;;;;;10.66;100.00;99817.78;5001383;28;19926;-85
2023/10/22 09:48:41;;;;;;;;;;;;;;;10.67;100.00;99819.38;4976240;28;20631;-84
2023/10/22 09:51:14;;;;;;;;;;;;;;;10.72;100.00;99824.72;5001220;28;19952;-86
2023/10/22 09:53:45;;;;;;;;;;;;;;;10.82;100.00;99817.50;4987226;28;19929;-86
2023/10/22 09:56:18;;;;;;;;;;;;;;;10.84;100.00;99823.41;5003910;28;19929;-86
2023/10/22 09:58:48;;;;;;;;;;;;;;;10.87;100.00;99822.84;4984962;28;19933;-86
2023/10/22 10:01:22;;;;;;;;;;;;;;;10.89;100.00;99820.59;4987426;28;19930;-85
2023/10/22 10:03:58;;;;;;;;;;;;;;;10.96;100.00;99829.16;4974762;28;19926;-86
2023/10/22 10:06:26;;;;;;;;;;;;;;;11.03;100.00;99837.75;5008399;28;20566;-80
2023/10/22 10:09:02;;;;;;;;;;;;;;;11.05;100.00;99835.53;4988175;28;20279;-85
2023/10/22 10:11:32;;;;;;;;;;;;;;;11.06;100.00;99833.59;4999601;28;19933;-83
2023/10/22 10:14:12;;;;;;;;;;;;;;;11.08;100.00;99849.66;4975362;28;19921;-87
2023/10/22 10:16:45;;;;;;;;;;;;;;;11.07;100.00;99848.81;4971977;28;19922;-88
2023/10/22 10:19:20;;;;;;;;;;;;;;;11.03;100.00;99854.09;4968870;28;19921;-87
2023/10/22 10:21:49;;;;;;;;;;;;;;;10.96;100.00;99863.75;4997244;28;19928;-88
2023/10/22 10:24:23;;;;;;;;;;;;;;;10.92;100.00;99852.66;4987375;28;19922;-86
2023/10/22 10:27:11;;;;;;;;;;;;;;;10.86;100.00;99859.31;4986194;28;19936;-86
2023/10/22 10:29:41;;;;;;;;;;;;;;;10.83;100.00;99855.28;4989698;28;19929;-84
2023/10/22 10:32:20;;;;;;;;;;;;;;;10.75;100.00;99858.72;5005146;28;19921;-83
2023/10/22 10:35:01;;;;;;;;;;;;;;;10.71;100.00;99863.13;4969857;28;20573;-86
2023/10/22 10:37:30;;;;;;;;;;;;;;;10.74;100.00;99864.44;5003081;28;19922;-85
2023/10/22 10:40:04;;;;;;;;;;;;;;;10.65;100.00;99865.16;4992334;28;19922;-85
2023/10/22 10:42:50;;;;;;;;;;;;;;;10.69;100.00;99866.16;4961841;28;19925;-87
2023/10/22 10:45:24;;;;;;;;;;;;;;;10.66;100.00;99868.66;5008618;28;19926;-87
2023/10/22 10:47:52;;;;;;;;;;;;;;;10.65;100.00;99872.50;4989747;28;19926;-88
2023/10/22 10:50:20;;;;;;;;;;;;;;;10.69;100.00;99879.75;5006189;28;20385;-87
2023/10/22 10:52:59;;;;;;;;;;;;;;;10.60;100.00;99880.75;4991087;28;20001;-85
2023/10/22 10:55:36;;;;;;;;;;;;;;;10.57;100.00;99878.66;4992944;28;20263;-86
2023/10/22 10:58:04;;;;;;;;;;;;;;;10.53;100.00;99879.22;4994379;28;19922;-88
2023/10/22 11:00:38;;;;;;;;;;;;;;;10.48;100.00;99881.22;4983224;28;19922;-85
2023/10/22 11:03:06;;;;;;;;;;;;;;;10.39;100.00;99878.41;4969992;28;19933;-85
2023/10/22 11:05:42;;;;;;;;;;;;;;;10.41;100.00;99881.59;4990801;28;19921;-88
2023/10/22 11:08:18;;;;;;;;;;;;;;;10.38;100.00;99883.03;5007748;28;19933;-85
2023/10/22 11:10:51;;;;;;;;;;;;;;;10.40;100.00;99885.47;4999492;28;19941;-86
2023/10/22 11:13:26;;;;;;;;;;;;;;;10.35;100.00;99886.31;5009997;28;19922;-86
2023/10/22 11:16:03;;;;;;;;;;;;;;;10.33;100.00;99874.09;4981512;28;19928;-87
2023/10/22 11:18:31;;;;;;;;;;;;;;;10.35;100.00;99882.81;5008081;28;19921;-87
2023/10/22 11:20:59;;;;;;;;;;;;;;;10.32;100.00;99886.09;4988911;28;19945;-86
2023/10/22 11:23:32;;;;;;;;;;;;;;;10.33;100.00;99887.69;4972095;28;20412;-87
2023/10/22 11:26:05;;;;;;;;;;;;;;;10.32;100.00;99892.34;4991366;28;19922;-87
2023/10/22 11:28:38;;;;;;;;;;;;;;;10.39;100.00;99892.00;4973537;28;19929;-86
2023/10/22 11:31:22;;;;;;;;;;;;;;;10.43;100.00;99892.22;5009730;28;19932;-87
2023/10/22 11:33:55;;;;;;;;;;;;;;;10.42;100.00;99899.56;4991266;28;19933;-89
2023/10/22 11:36:24;;;;;;;;;;;;;;;10.48;100.00;99900.28;5009302;28;20371;-87
2023/10/22 11:38:52;;;;;;;;;;;;;;;10.43;100.00;99897.66;4994067;28;19922;-87
2023/10/22 11:41:19;;;;;;;;;;;;;;;10.41;100.00;99908.81;4994107;28;19922;-86
2023/10/22 11:43:52;;;;;;;;;;;;;;;10.53;100.00;99916.50;4993383;28;19922;-89
2023/10/22 11:46:22;;;;;;;;;;;;;;;10.52;100.00;99910.28;4975880;28;20923;-85
2023/10/22 11:48:50;;;;;;;;;;;;;;;10.51;100.00;99916.81;5010507;28;19925;-84
2023/10/22 11:51:18;;;;;;;;;;;;;;;10.52;100.00;99921.16;4999860;28;19933;-87
2023/10/22 11:53:46;;;;;;;;;;;;;;;10.53;100.00;99920.03;4972222;28;19929;-83
2023/10/22 11:56:14;;;;;;;;;;;;;;;10.60;100.00;99922.38;4994623;28;20374;-87
2023/10/22 11:58:43;;;;;;;;;;;;;;;10.60;100.00;99927.00;4991136;28;19922;-85
2023/10/22 12:01:16;;;;;;;;;;;;;;;10.61;100.00;99926.72;5008959;28;19929;-84
2023/10/22 12:03:45;;;;;;;;;;;;;;;10.62;100.00;99928.34;4975070;28;19922;-85
2023/10/22 12:06:13;;;;;;;;;;;;;;;10.59;100.00;99930.84;4992997;28;19944;-86
2023/10/22 12:08:41;;;;;;;;;;;;;;;10.58;100.00;99943.63;4992437;28;19922;-85
2023/10/22 12:11:14;;;;;;;;;;;;;;;10.61;100.00;99939.53;4991584;28;19925;-86
2023/10/22 12:13:41;;;;;;;;;;;;;;;10.53;100.00;99944.50;4974050;28;19929;-84
2023/10/22 12:16:10;;;;;;;;;;;;;;;10.53;100.00;99952.69;4974706;28;19922;-85
2023/10/22 12:18:38;;;;;;;;;;;;;;;10.46;100.00;99960.41;4982820;28;19941;-86
2023/10/22 12:21:07;;;;;;;;;;;;;;;10.49;100.00;99959.81;4986779;28;19921;-85
2023/10/22 12:23:35;;;;;;;;;;;;;;;10.50;100.00;99966.88;4994073;28;19933;-87
2023/10/22 12:26:11;;;;;;;;;;;;;;;10.46;100.00;99962.34;4973286;28;19932;-88
2023/10/22 12:28:39;;;;;;;;;;;;;;;10.46;100.00;99957.69;4994218;28;19921;-86
2023/10/22 12:31:12;;;;;;;;;;;;;;;10.45;100.00;99969.69;4990011;28;20378;-88
2023/10/22 12:33:45;;;;;;;;;;;;;;;10.48;100.00;99971.00;4977754;28;19945;-86
2023/10/22 12:36:20;;;;;;;;;;;;;;;10.49;100.00;99975.34;4990927;28;20610;-88
2023/10/22 12:38:48;;;;;;;;;;;;;;;10.50;100.00;99974.25;5012689;28;19925;-89
2023/10/22 12:41:21;;;;;;;;;;;;;;;10.52;100.00;99981.00;4977639;28;19929;-88
2023/10/22 12:43:54;;;;;;;;;;;;;;;10.51;100.00;99984.81;4984693;28;19929;-87
2023/10/22 12:46:26;;;;;;;;;;;;;;;10.57;100.00;99987.47;4991355;28;20374;-88
2023/10/22 12:48:54;;;;;;;;;;;;;;;10.58;100.00;99989.91;4981520;28;20628;-88
2023/10/22 12:51:24;;;;;;;;;;;;;;;10.59;100.00;99987.97;4990092;28;20844;-87
2023/10/22 12:53:57;;;;;;;;;;;;;;;10.59;100.00;99994.22;5002378;28;20286;-88
2023/10/22 12:56:25;;;;;;;;;;;;;;;10.64;100.00;99991.41;4982783;28;19998;-88
2023/10/22 12:58:55;;;;;;;;;;;;;;;10.70;100.00;99990.25;5001956;28;19928;-89
2023/10/22 13:01:23;;;;;;;;;;;;;;;10.78;100.00;99996.09;4991111;28;19922;-89
2023/10/22 13:03:51;;;;;;;;;;;;;;;10.83;100.00;99994.09;4992613;28;22520;-89